createdAt,value
2017-11-26T00:00:35.401Z,99.99
2017-11-26T00:01:35.415Z,99.99
2017-11-26T00:02:35.436Z,99.99
2017-11-26T00:03:35.457Z,99.99
2017-11-26T00:04:35.464Z,99.99
2017-11-26T00:05:35.470Z,99.99
2017-11-26T00:06:35.488Z,99.99
2017-11-26T00:07:35.499Z,99.99
2017-11-26T00:08:35.516Z,99.99
2017-11-26T00:09:35.539Z,99.99
2017-11-26T00:10:35.545Z,99.99
2017-11-26T00:11:35.558Z,99.99
2017-11-26T00:12:35.576Z,99.99
2017-11-26T00:13:35.590Z,99.99
2017-11-26T00:14:35.603Z,99.99
2017-11-26T00:15:35.618Z,99.99
2017-11-26T00:16:35.633Z,99.99
2017-11-26T00:17:35.647Z,99.99
2017-11-26T00:18:35.665Z,99.99
2017-11-26T00:19:35.675Z,99.99
2017-11-26T00:20:35.692Z,99.99
2017-11-26T00:21:35.705Z,99.99
2017-11-26T00:22:35.716Z,99.99
2017-11-26T00:23:35.733Z,99.99
2017-11-26T00:24:35.752Z,99.99
2017-11-26T00:25:35.764Z,99.99
2017-11-26T00:26:35.778Z,99.99
2017-11-26T00:27:35.802Z,99.99
2017-11-26T00:28:35.808Z,99.99
2017-11-26T00:29:35.823Z,99.99
2017-11-26T00:30:35.839Z,99.99
2017-11-26T00:31:35.862Z,99.99
2017-11-26T00:32:35.866Z,99.99
2017-11-26T00:33:35.876Z,99.99
2017-11-26T00:34:35.895Z,99.99
2017-11-26T00:35:35.906Z,99.99
2017-11-26T00:36:35.924Z,99.99
2017-11-26T00:37:35.938Z,99.99
2017-11-26T00:38:35.954Z,99.99
2017-11-26T00:39:35.967Z,99.99
2017-11-26T00:40:35.981Z,99.99
2017-11-26T00:41:35.997Z,99.99
2017-11-26T00:42:36.010Z,99.99
2017-11-26T00:43:36.024Z,99.99
2017-11-26T00:44:36.041Z,99.99
2017-11-26T00:45:36.057Z,99.99
2017-11-26T00:46:36.066Z,99.99
2017-11-26T00:47:36.081Z,99.99
2017-11-26T00:48:36.095Z,99.99
2017-11-26T00:49:36.109Z,99.99
2017-11-26T00:50:36.121Z,99.99
2017-11-26T00:51:36.142Z,99.99
2017-11-26T00:52:36.154Z,99.99
2017-11-26T00:53:36.171Z,99.99
2017-11-26T00:54:36.186Z,99.99
2017-11-26T00:55:36.199Z,99.99
2017-11-26T00:56:36.214Z,99.99
2017-11-26T00:57:36.229Z,99.99
2017-11-26T00:58:36.244Z,99.99
2017-11-26T00:59:36.271Z,99.99
2017-11-26T01:00:36.270Z,99.99
2017-11-26T01:01:36.285Z,99.99
2017-11-26T01:02:36.299Z,99.99
2017-11-26T01:03:36.315Z,99.99
2017-11-26T01:04:36.323Z,99.99
2017-11-26T01:05:36.344Z,99.99
2017-11-26T01:06:36.353Z,99.99
2017-11-26T01:07:36.373Z,99.99
2017-11-26T01:08:36.397Z,99.99
2017-11-26T01:09:36.404Z,99.99
2017-11-26T01:10:36.419Z,99.99
2017-11-26T01:11:36.433Z,99.99
2017-11-26T01:12:36.455Z,99.99
2017-11-26T01:13:36.477Z,99.99
2017-11-26T01:14:36.478Z,99.99
2017-11-26T01:15:36.491Z,99.99
2017-11-26T01:16:36.506Z,99.99
2017-11-26T01:17:36.518Z,99.99
2017-11-26T01:18:36.537Z,99.99
2017-11-26T01:19:36.552Z,99.99
2017-11-26T01:20:36.568Z,99.99
2017-11-26T01:21:36.583Z,99.99
2017-11-26T01:22:36.604Z,99.99
2017-11-26T01:23:36.610Z,99.99
2017-11-26T01:24:36.626Z,99.99
2017-11-26T01:25:36.650Z,99.99
2017-11-26T01:26:36.664Z,99.99
2017-11-26T01:27:36.682Z,99.99
2017-11-26T01:28:36.688Z,99.99
2017-11-26T01:29:36.700Z,99.99
2017-11-26T01:30:36.715Z,99.99
2017-11-26T01:31:36.724Z,99.99
2017-11-26T01:32:36.745Z,99.99
2017-11-26T01:33:36.754Z,99.99
2017-11-26T01:34:36.774Z,99.99
2017-11-26T01:35:36.791Z,99.99
2017-11-26T01:36:36.803Z,99.99
2017-11-26T01:37:36.820Z,99.99
2017-11-26T01:38:36.846Z,99.99
2017-11-26T01:39:36.853Z,99.99
2017-11-26T01:40:36.866Z,99.99
2017-11-26T01:41:36.884Z,99.99
2017-11-26T01:42:36.892Z,99.99
2017-11-26T01:43:36.906Z,99.99
2017-11-26T01:44:36.924Z,99.99
2017-11-26T01:45:36.940Z,99.99
2017-11-26T01:46:36.951Z,99.99
2017-11-26T01:47:36.966Z,99.99
2017-11-26T01:48:36.984Z,99.99
2017-11-26T01:49:36.999Z,99.99
2017-11-26T01:50:37.013Z,99.99
2017-11-26T01:51:37.028Z,99.99
2017-11-26T01:52:37.050Z,99.99
2017-11-26T01:53:37.055Z,99.99
2017-11-26T01:54:37.076Z,99.99
2017-11-26T01:55:37.087Z,99.99
2017-11-26T01:56:37.099Z,99.99
2017-11-26T01:57:37.112Z,99.99
2017-11-26T01:58:37.196Z,99.99
2017-11-26T01:59:37.145Z,99.99
2017-11-26T02:00:37.160Z,99.99
2017-11-26T02:01:37.176Z,99.99
2017-11-26T02:02:37.190Z,99.99
2017-11-26T02:03:37.204Z,99.99
2017-11-26T02:04:37.219Z,99.99
2017-11-26T02:05:37.240Z,99.99
2017-11-26T02:06:37.243Z,99.99
2017-11-26T02:07:37.260Z,99.99
2017-11-26T02:08:37.277Z,99.99
2017-11-26T02:09:37.293Z,99.99
2017-11-26T02:10:37.306Z,99.99
2017-11-26T02:11:37.317Z,99.99
2017-11-26T02:12:37.338Z,99.99
2017-11-26T02:13:37.349Z,99.99
2017-11-26T02:14:37.365Z,99.99
2017-11-26T02:15:37.382Z,99.99
2017-11-26T02:16:37.390Z,99.99
2017-11-26T02:17:37.404Z,99.99
2017-11-26T02:18:37.427Z,99.99
2017-11-26T02:19:37.435Z,99.99
2017-11-26T02:20:37.458Z,99.99
2017-11-26T02:21:37.470Z,99.99
2017-11-26T02:22:37.481Z,99.99
2017-11-26T02:23:37.489Z,99.99
2017-11-26T02:24:37.510Z,99.99
2017-11-26T02:25:37.524Z,99.99
2017-11-26T02:26:37.539Z,99.99
2017-11-26T02:27:37.553Z,99.99
2017-11-26T02:28:37.567Z,99.99
2017-11-26T02:29:37.579Z,99.99
2017-11-26T02:30:37.602Z,99.81
2017-11-26T02:31:37.610Z,99.33
2017-11-26T02:32:37.631Z,99.15
2017-11-26T02:33:37.639Z,99.90
2017-11-26T02:34:37.662Z,99.81
2017-11-26T02:35:37.669Z,99.99
2017-11-26T02:36:37.677Z,99.62
2017-11-26T02:37:37.694Z,99.81
2017-11-26T02:38:37.715Z,99.81
2017-11-26T02:39:37.732Z,99.90
2017-11-26T02:40:37.737Z,99.99
2017-11-26T02:41:37.757Z,99.99
2017-11-26T02:42:37.769Z,99.81
2017-11-26T02:43:37.783Z,99.81
2017-11-26T02:44:37.798Z,99.52
2017-11-26T02:45:37.808Z,99.99
2017-11-26T02:46:37.827Z,99.99
2017-11-26T02:47:37.840Z,99.81
2017-11-26T02:48:37.863Z,99.99
2017-11-26T02:49:37.871Z,99.71
2017-11-26T02:50:37.888Z,99.52
2017-11-26T02:51:37.896Z,99.99
2017-11-26T02:52:37.914Z,99.24
2017-11-26T02:53:37.935Z,99.62
2017-11-26T02:54:37.947Z,99.99
2017-11-26T02:55:37.958Z,99.52
2017-11-26T02:56:37.974Z,99.81
2017-11-26T02:57:37.984Z,99.81
2017-11-26T02:58:37.997Z,99.99
2017-11-26T02:59:38.059Z,99.99
2017-11-26T03:00:38.031Z,99.99
2017-11-26T03:01:38.039Z,99.52
2017-11-26T03:02:38.051Z,99.33
2017-11-26T03:03:38.077Z,99.52
2017-11-26T03:04:38.086Z,99.81
2017-11-26T03:05:38.102Z,99.33
2017-11-26T03:06:38.118Z,99.52
2017-11-26T03:07:38.135Z,99.90
2017-11-26T03:08:38.140Z,99.62
2017-11-26T03:09:38.156Z,99.52
2017-11-26T03:10:38.174Z,99.24
2017-11-26T03:11:38.185Z,99.52
2017-11-26T03:12:38.201Z,99.99
2017-11-26T03:13:38.217Z,99.99
2017-11-26T03:14:38.235Z,99.90
2017-11-26T03:15:38.244Z,99.99
2017-11-26T03:16:38.262Z,99.81
2017-11-26T03:17:38.276Z,99.81
2017-11-26T03:18:38.296Z,99.81
2017-11-26T03:19:38.302Z,99.81
2017-11-26T03:20:38.319Z,99.71
2017-11-26T03:21:38.338Z,99.52
2017-11-26T03:22:38.345Z,99.81
2017-11-26T03:23:38.359Z,99.33
2017-11-26T03:24:38.376Z,99.52
2017-11-26T03:25:38.388Z,99.99
2017-11-26T03:26:38.401Z,99.15
2017-11-26T03:27:38.418Z,99.43
2017-11-26T03:28:38.425Z,99.43
2017-11-26T03:29:38.454Z,99.62
2017-11-26T03:30:38.465Z,99.99
2017-11-26T03:31:38.477Z,99.99
2017-11-26T03:32:38.489Z,99.99
2017-11-26T03:33:38.504Z,99.99
2017-11-26T03:34:38.521Z,99.71
2017-11-26T03:35:38.533Z,99.99
2017-11-26T03:36:38.552Z,99.99
2017-11-26T03:37:38.572Z,99.90
2017-11-26T03:38:38.585Z,99.81
2017-11-26T03:39:38.590Z,99.99
2017-11-26T03:40:38.605Z,99.90
2017-11-26T03:41:38.619Z,99.90
2017-11-26T03:42:38.645Z,99.99
2017-11-26T03:43:38.648Z,99.90
2017-11-26T03:44:38.663Z,99.81
2017-11-26T03:45:38.678Z,99.81
2017-11-26T03:46:38.698Z,99.99
2017-11-26T03:47:38.701Z,99.71
2017-11-26T03:48:38.722Z,99.71
2017-11-26T03:49:38.740Z,99.71
2017-11-26T03:50:38.749Z,99.71
2017-11-26T03:51:38.762Z,99.90
2017-11-26T03:52:38.781Z,99.99
2017-11-26T03:53:38.804Z,99.99
2017-11-26T03:54:38.807Z,99.90
2017-11-26T03:55:38.814Z,99.99
2017-11-26T03:56:38.836Z,99.99
2017-11-26T03:57:38.855Z,99.99
2017-11-26T03:58:38.866Z,99.90
2017-11-26T03:59:38.891Z,99.71
2017-11-26T04:00:38.898Z,99.52
2017-11-26T04:01:38.907Z,99.81
2017-11-26T04:02:38.921Z,99.99
2017-11-26T04:03:38.942Z,99.99
2017-11-26T04:04:38.948Z,99.99
2017-11-26T04:05:38.970Z,99.99
2017-11-26T04:06:38.981Z,99.99
2017-11-26T04:07:38.994Z,99.99
2017-11-26T04:08:39.007Z,99.99
2017-11-26T04:09:39.021Z,99.99
2017-11-26T04:10:39.035Z,99.99
2017-11-26T04:11:39.045Z,99.99
2017-11-26T04:12:39.064Z,99.99
2017-11-26T04:13:39.084Z,99.99
2017-11-26T04:14:39.099Z,99.99
2017-11-26T04:15:39.104Z,99.99
2017-11-26T04:16:39.122Z,99.99
2017-11-26T04:17:39.136Z,99.99
2017-11-26T04:18:39.153Z,99.99
2017-11-26T04:19:39.162Z,99.99
2017-11-26T04:20:39.180Z,99.43
2017-11-26T04:21:39.196Z,99.52
2017-11-26T04:22:39.206Z,99.24
2017-11-26T04:23:39.221Z,99.15
2017-11-26T04:24:39.237Z,99.05
2017-11-26T04:25:39.248Z,98.86
2017-11-26T04:26:39.268Z,99.15
2017-11-26T04:27:39.280Z,99.24
2017-11-26T04:28:39.292Z,99.05
2017-11-26T04:29:39.306Z,99.15
2017-11-26T04:30:39.322Z,99.24
2017-11-26T04:31:39.337Z,99.33
2017-11-26T04:32:39.352Z,98.30
2017-11-26T04:33:39.363Z,98.68
2017-11-26T04:34:39.388Z,99.24
2017-11-26T04:35:39.393Z,99.15
2017-11-26T04:36:39.405Z,99.24
2017-11-26T04:37:39.431Z,99.24
2017-11-26T04:38:39.443Z,98.68
2017-11-26T04:39:39.450Z,98.86
2017-11-26T04:40:39.461Z,98.49
2017-11-26T04:41:39.481Z,98.39
2017-11-26T04:42:39.502Z,98.30
2017-11-26T04:43:39.510Z,98.30
2017-11-26T04:44:39.520Z,98.30
2017-11-26T04:45:39.542Z,98.39
2017-11-26T04:46:39.556Z,98.68
2017-11-26T04:47:39.563Z,98.11
2017-11-26T04:48:39.584Z,98.30
2017-11-26T04:49:39.601Z,98.39
2017-11-26T04:50:39.611Z,97.25
2017-11-26T04:51:39.623Z,97.82
2017-11-26T04:52:39.641Z,97.73
2017-11-26T04:53:39.652Z,98.30
2017-11-26T04:54:39.668Z,98.58
2017-11-26T04:55:39.681Z,98.77
2017-11-26T04:56:39.727Z,98.01
2017-11-26T04:57:39.706Z,98.30
2017-11-26T04:58:39.727Z,98.20
2017-11-26T04:59:39.739Z,98.39
2017-11-26T05:00:39.752Z,98.49
2017-11-26T05:01:39.774Z,98.49
2017-11-26T05:02:39.783Z,98.96
2017-11-26T05:03:39.800Z,98.01
2017-11-26T05:04:39.811Z,98.11
2017-11-26T05:05:39.827Z,99.43
2017-11-26T05:06:39.845Z,98.49
2017-11-26T05:07:39.853Z,98.49
2017-11-26T05:08:39.867Z,98.30
2017-11-26T05:09:39.880Z,98.77
2017-11-26T05:10:39.893Z,98.68
2017-11-26T05:11:39.918Z,97.92
2017-11-26T05:12:39.925Z,98.30
2017-11-26T05:13:39.938Z,97.63
2017-11-26T05:14:39.956Z,98.20
2017-11-26T05:15:39.969Z,98.20
2017-11-26T05:16:39.988Z,98.39
2017-11-26T05:17:39.995Z,98.30
2017-11-26T05:18:40.020Z,98.77
2017-11-26T05:19:40.024Z,98.68
2017-11-26T05:20:40.044Z,98.49
2017-11-26T05:21:40.052Z,98.01
2017-11-26T05:22:40.084Z,98.39
2017-11-26T05:23:40.082Z,98.68
2017-11-26T05:24:40.099Z,98.49
2017-11-26T05:25:40.114Z,98.30
2017-11-26T05:26:40.128Z,98.20
2017-11-26T05:27:40.142Z,98.30
2017-11-26T05:28:40.156Z,98.49
2017-11-26T05:29:40.175Z,98.49
2017-11-26T05:30:40.186Z,98.86
2017-11-26T05:31:40.198Z,98.30
2017-11-26T05:32:40.214Z,98.49
2017-11-26T05:33:40.232Z,98.39
2017-11-26T05:34:40.247Z,98.39
2017-11-26T05:35:40.258Z,98.11
2017-11-26T05:36:40.278Z,98.30
2017-11-26T05:37:40.287Z,98.20
2017-11-26T05:38:40.301Z,98.30
2017-11-26T05:39:40.312Z,98.68
2017-11-26T05:40:40.329Z,98.86
2017-11-26T05:41:40.352Z,98.68
2017-11-26T05:42:40.362Z,98.20
2017-11-26T05:43:40.370Z,98.58
2017-11-26T05:44:40.389Z,98.49
2017-11-26T05:45:40.402Z,98.30
2017-11-26T05:46:40.414Z,98.01
2017-11-26T05:47:40.437Z,98.30
2017-11-26T05:48:40.444Z,98.58
2017-11-26T05:49:40.463Z,98.20
2017-11-26T05:50:40.485Z,98.39
2017-11-26T05:51:40.488Z,98.49
2017-11-26T05:52:40.497Z,99.33
2017-11-26T05:53:40.515Z,98.68
2017-11-26T05:54:40.525Z,98.39
2017-11-26T05:55:40.543Z,98.58
2017-11-26T05:56:40.560Z,98.11
2017-11-26T05:57:40.583Z,98.77
2017-11-26T05:58:40.589Z,98.58
2017-11-26T05:59:40.601Z,98.58
2017-11-26T06:00:40.612Z,98.11
2017-11-26T06:01:40.631Z,98.58
2017-11-26T06:02:40.651Z,98.86
2017-11-26T06:03:40.658Z,98.58
2017-11-26T06:04:40.675Z,97.82
2017-11-26T06:05:40.688Z,98.30
2017-11-26T06:06:40.698Z,98.20
2017-11-26T06:07:40.713Z,98.11
2017-11-26T06:08:40.729Z,98.30
2017-11-26T06:09:40.748Z,98.39
2017-11-26T06:10:40.758Z,98.35
2017-11-26T06:11:40.773Z,97.78
2017-11-26T06:12:40.792Z,97.68
2017-11-26T06:13:40.804Z,97.02
2017-11-26T06:14:40.818Z,97.21
2017-11-26T06:15:40.847Z,97.30
2017-11-26T06:16:40.858Z,96.92
2017-11-26T06:17:40.861Z,96.83
2017-11-26T06:18:40.876Z,96.55
2017-11-26T06:19:40.888Z,97.49
2017-11-26T06:20:40.904Z,97.11
2017-11-26T06:21:40.915Z,97.30
2017-11-26T06:22:40.936Z,97.30
2017-11-26T06:23:40.948Z,97.30
2017-11-26T06:24:40.964Z,97.11
2017-11-26T06:25:40.979Z,97.11
2017-11-26T06:26:40.992Z,97.11
2017-11-26T06:27:41.003Z,97.59
2017-11-26T06:28:41.032Z,96.55
2017-11-26T06:29:41.038Z,96.92
2017-11-26T06:30:41.051Z,97.11
2017-11-26T06:31:41.064Z,97.11
2017-11-26T06:32:41.078Z,97.11
2017-11-26T06:33:41.096Z,97.11
2017-11-26T06:34:41.104Z,97.78
2017-11-26T06:35:41.122Z,97.78
2017-11-26T06:36:41.140Z,97.11
2017-11-26T06:37:41.150Z,97.11
2017-11-26T06:38:41.167Z,97.78
2017-11-26T06:39:41.199Z,97.87
2017-11-26T06:40:41.195Z,97.40
2017-11-26T06:41:41.212Z,97.59
2017-11-26T06:42:41.242Z,97.11
2017-11-26T06:43:41.242Z,97.21
2017-11-26T06:44:41.250Z,97.49
2017-11-26T06:45:41.270Z,97.21
2017-11-26T06:46:41.285Z,97.21
2017-11-26T06:47:41.299Z,97.49
2017-11-26T06:48:41.314Z,97.49
2017-11-26T06:49:41.329Z,97.40
2017-11-26T06:50:41.350Z,97.68
2017-11-26T06:51:41.358Z,97.30
2017-11-26T06:52:41.390Z,97.11
2017-11-26T06:53:41.385Z,96.64
2017-11-26T06:54:41.402Z,96.55
2017-11-26T06:55:41.410Z,97.30
2017-11-26T06:56:41.431Z,96.64
2017-11-26T06:57:41.461Z,96.92
2017-11-26T06:58:41.468Z,96.92
2017-11-26T06:59:41.476Z,96.83
2017-11-26T07:00:41.493Z,96.73
2017-11-26T07:01:41.506Z,96.55
2017-11-26T07:02:41.520Z,96.64
2017-11-26T07:03:41.535Z,97.02
2017-11-26T07:04:41.551Z,96.26
2017-11-26T07:05:41.564Z,96.73
2017-11-26T07:06:41.584Z,97.30
2017-11-26T07:07:41.591Z,96.36
2017-11-26T07:08:41.604Z,97.21
2017-11-26T07:09:41.625Z,97.30
2017-11-26T07:10:41.638Z,97.40
2017-11-26T07:11:41.652Z,96.92
2017-11-26T07:12:41.667Z,96.64
2017-11-26T07:13:41.682Z,96.92
2017-11-26T07:14:41.692Z,96.17
2017-11-26T07:15:41.722Z,96.26
2017-11-26T07:16:41.727Z,96.36
2017-11-26T07:17:41.740Z,96.45
2017-11-26T07:18:41.753Z,96.73
2017-11-26T07:19:41.775Z,96.26
2017-11-26T07:20:41.786Z,96.73
2017-11-26T07:21:41.800Z,96.55
2017-11-26T07:22:41.822Z,96.26
2017-11-26T07:23:41.837Z,96.36
2017-11-26T07:24:41.848Z,97.02
2017-11-26T07:25:41.863Z,96.92
2017-11-26T07:26:41.879Z,96.26
2017-11-26T07:27:41.887Z,96.45
2017-11-26T07:28:41.912Z,95.79
2017-11-26T07:29:41.922Z,96.17
2017-11-26T07:30:41.932Z,96.55
2017-11-26T07:31:41.956Z,96.73
2017-11-26T07:32:41.965Z,96.92
2017-11-26T07:33:41.979Z,95.98
2017-11-26T07:34:41.993Z,96.45
2017-11-26T07:35:42.000Z,96.17
2017-11-26T07:36:42.028Z,96.36
2017-11-26T07:37:42.043Z,96.45
2017-11-26T07:38:42.063Z,95.98
2017-11-26T07:39:42.070Z,96.73
2017-11-26T07:40:42.079Z,97.21
2017-11-26T07:41:42.099Z,97.49
2017-11-26T07:42:42.115Z,97.11
2017-11-26T07:43:42.128Z,96.07
2017-11-26T07:44:42.141Z,96.92
2017-11-26T07:45:42.164Z,96.07
2017-11-26T07:46:42.172Z,95.79
2017-11-26T07:47:42.188Z,96.26
2017-11-26T07:48:42.229Z,95.79
2017-11-26T07:49:42.225Z,95.98
2017-11-26T07:50:42.230Z,96.26
2017-11-26T07:51:42.248Z,96.26
2017-11-26T07:52:42.269Z,96.17
2017-11-26T07:53:42.278Z,95.65
2017-11-26T07:54:42.294Z,95.17
2017-11-26T07:55:42.308Z,95.65
2017-11-26T07:56:42.325Z,95.22
2017-11-26T07:57:42.339Z,95.31
2017-11-26T07:58:42.354Z,95.79
2017-11-26T07:59:42.365Z,95.60
2017-11-26T08:00:42.385Z,95.50
2017-11-26T08:01:42.395Z,95.69
2017-11-26T08:02:42.412Z,95.50
2017-11-26T08:03:42.425Z,95.36
2017-11-26T08:04:42.451Z,95.65
2017-11-26T08:05:42.463Z,95.50
2017-11-26T08:06:42.469Z,95.41
2017-11-26T08:07:42.487Z,95.79
2017-11-26T08:08:42.495Z,95.65
2017-11-26T08:09:42.515Z,95.98
2017-11-26T08:10:42.530Z,95.84
2017-11-26T08:11:42.545Z,95.41
2017-11-26T08:12:42.558Z,95.74
2017-11-26T08:13:42.575Z,95.65
2017-11-26T08:14:42.592Z,95.50
2017-11-26T08:15:42.605Z,95.60
2017-11-26T08:16:42.626Z,96.26
2017-11-26T08:17:42.638Z,96.12
2017-11-26T08:18:42.649Z,95.84
2017-11-26T08:19:42.681Z,96.17
2017-11-26T08:20:42.682Z,95.45
2017-11-26T08:21:42.695Z,95.88
2017-11-26T08:22:42.709Z,95.84
2017-11-26T08:23:42.723Z,95.45
2017-11-26T08:24:42.741Z,95.65
2017-11-26T08:25:42.764Z,95.55
2017-11-26T08:26:42.770Z,95.45
2017-11-26T08:27:42.789Z,95.45
2017-11-26T08:28:42.799Z,95.45
2017-11-26T08:29:42.817Z,94.93
2017-11-26T08:30:42.832Z,95.65
2017-11-26T08:31:42.850Z,95.55
2017-11-26T08:32:42.863Z,95.26
2017-11-26T08:33:42.876Z,95.07
2017-11-26T08:34:42.896Z,95.07
2017-11-26T08:35:42.906Z,95.07
2017-11-26T08:36:42.920Z,95.36
2017-11-26T08:37:42.936Z,95.45
2017-11-26T08:38:42.952Z,95.17
2017-11-26T08:39:42.970Z,95.74
2017-11-26T08:40:42.985Z,95.07
2017-11-26T08:41:42.999Z,94.89
2017-11-26T08:42:43.008Z,95.36
2017-11-26T08:43:43.029Z,95.07
2017-11-26T08:44:43.035Z,95.07
2017-11-26T08:45:43.064Z,94.98
2017-11-26T08:46:43.074Z,94.79
2017-11-26T08:47:43.089Z,94.79
2017-11-26T08:48:43.105Z,94.70
2017-11-26T08:49:43.121Z,94.60
2017-11-26T08:50:43.131Z,94.23
2017-11-26T08:51:43.151Z,94.89
2017-11-26T08:52:43.167Z,94.89
2017-11-26T08:53:43.182Z,94.89
2017-11-26T08:54:43.192Z,94.51
2017-11-26T08:55:43.217Z,94.23
2017-11-26T08:56:43.227Z,94.23
2017-11-26T08:57:43.245Z,94.60
2017-11-26T08:58:43.255Z,93.75
2017-11-26T08:59:43.271Z,94.79
2017-11-26T09:00:43.282Z,94.60
2017-11-26T09:01:43.303Z,94.60
2017-11-26T09:02:43.317Z,94.60
2017-11-26T09:03:43.333Z,94.51
2017-11-26T09:04:43.347Z,94.70
2017-11-26T09:05:43.364Z,94.04
2017-11-26T09:06:43.379Z,94.04
2017-11-26T09:07:43.395Z,94.13
2017-11-26T09:08:43.409Z,94.04
2017-11-26T09:09:43.432Z,94.13
2017-11-26T09:10:43.441Z,93.75
2017-11-26T09:11:43.454Z,94.04
2017-11-26T09:12:43.471Z,93.65
2017-11-26T09:13:43.485Z,93.65
2017-11-26T09:14:43.502Z,93.65
2017-11-26T09:15:43.516Z,94.32
2017-11-26T09:16:43.531Z,94.23
2017-11-26T09:17:43.544Z,94.60
2017-11-26T09:18:43.561Z,94.04
2017-11-26T09:19:43.577Z,94.04
2017-11-26T09:20:43.593Z,94.60
2017-11-26T09:21:43.607Z,93.94
2017-11-26T09:22:43.616Z,93.94
2017-11-26T09:23:43.643Z,93.75
2017-11-26T09:24:43.654Z,94.32
2017-11-26T09:25:43.665Z,93.84
2017-11-26T09:26:43.691Z,93.75
2017-11-26T09:27:43.692Z,93.56
2017-11-26T09:28:43.715Z,93.84
2017-11-26T09:29:43.736Z,94.04
2017-11-26T09:30:43.745Z,93.70
2017-11-26T09:31:43.769Z,94.32
2017-11-26T09:32:43.899Z,93.80
2017-11-26T09:33:43.793Z,93.89
2017-11-26T09:34:43.812Z,93.80
2017-11-26T09:35:43.825Z,93.61
2017-11-26T09:36:43.834Z,93.51
2017-11-26T09:37:43.857Z,93.32
2017-11-26T09:38:43.877Z,93.13
2017-11-26T09:39:43.884Z,93.61
2017-11-26T09:40:43.903Z,92.76
2017-11-26T09:41:43.917Z,93.32
2017-11-26T09:42:43.930Z,93.13
2017-11-26T09:43:43.951Z,93.23
2017-11-26T09:44:43.965Z,93.89
2017-11-26T09:45:43.974Z,93.99
2017-11-26T09:46:44.005Z,93.89
2017-11-26T09:47:44.010Z,93.51
2017-11-26T09:48:44.026Z,92.76
2017-11-26T09:49:44.047Z,93.04
2017-11-26T09:50:44.065Z,93.51
2017-11-26T09:51:44.086Z,93.51
2017-11-26T09:52:44.095Z,93.32
2017-11-26T09:53:44.104Z,93.23
2017-11-26T09:54:44.123Z,92.85
2017-11-26T09:55:44.139Z,93.04
2017-11-26T09:56:44.152Z,92.94
2017-11-26T09:57:44.188Z,93.04
2017-11-26T09:58:44.196Z,92.94
2017-11-26T09:59:44.201Z,93.13
2017-11-26T10:00:44.217Z,92.85
2017-11-26T10:01:44.232Z,93.23
2017-11-26T10:02:44.249Z,92.76
2017-11-26T10:03:44.263Z,92.38
2017-11-26T10:04:44.274Z,91.99
2017-11-26T10:05:44.299Z,92.66
2017-11-26T10:06:44.309Z,92.09
2017-11-26T10:07:44.325Z,91.80
2017-11-26T10:08:44.380Z,91.52
2017-11-26T10:09:44.353Z,91.71
2017-11-26T10:10:44.375Z,91.14
2017-11-26T10:11:44.396Z,92.47
2017-11-26T10:12:44.411Z,92.09
2017-11-26T10:13:44.422Z,91.52
2017-11-26T10:14:44.435Z,92.28
2017-11-26T10:15:44.453Z,92.28
2017-11-26T10:16:44.468Z,92.28
2017-11-26T10:17:44.485Z,91.75
2017-11-26T10:18:44.538Z,91.90
2017-11-26T10:19:44.520Z,91.71
2017-11-26T10:20:44.530Z,91.90
2017-11-26T10:21:44.549Z,92.76
2017-11-26T10:22:44.571Z,92.57
2017-11-26T10:23:44.584Z,92.38
2017-11-26T10:24:44.596Z,92.57
2017-11-26T10:25:44.619Z,92.71
2017-11-26T10:26:44.631Z,91.19
2017-11-26T10:27:44.653Z,91.56
2017-11-26T10:28:44.654Z,90.81
2017-11-26T10:29:44.674Z,91.66
2017-11-26T10:30:44.695Z,91.94
2017-11-26T10:31:44.721Z,92.04
2017-11-26T10:32:44.724Z,91.66
2017-11-26T10:33:44.743Z,91.85
2017-11-26T10:34:44.761Z,92.33
2017-11-26T10:35:44.770Z,92.23
2017-11-26T10:36:44.806Z,91.75
2017-11-26T10:37:44.804Z,92.42
2017-11-26T10:38:44.909Z,91.66
2017-11-26T10:39:44.837Z,91.47
2017-11-26T10:40:44.852Z,91.85
2017-11-26T10:41:44.870Z,92.61
2017-11-26T10:42:44.884Z,92.14
2017-11-26T10:43:44.898Z,91.56
2017-11-26T10:44:44.926Z,91.19
2017-11-26T10:45:44.937Z,91.09
2017-11-26T10:46:44.953Z,91.56
2017-11-26T10:47:44.970Z,91.28
2017-11-26T10:48:44.989Z,91.56
2017-11-26T10:49:44.998Z,91.85
2017-11-26T10:50:45.023Z,91.66
2017-11-26T10:51:45.035Z,91.85
2017-11-26T10:52:45.046Z,91.85
2017-11-26T10:53:45.066Z,92.14
2017-11-26T10:54:45.077Z,91.66
2017-11-26T10:55:45.092Z,91.66
2017-11-26T10:56:45.116Z,90.81
2017-11-26T10:57:45.131Z,91.38
2017-11-26T10:58:45.151Z,92.33
2017-11-26T10:59:45.222Z,91.71
2017-11-26T11:00:45.186Z,91.38
2017-11-26T11:01:45.193Z,91.85
2017-11-26T11:02:45.210Z,91.56
2017-11-26T11:03:45.224Z,91.38
2017-11-26T11:04:45.243Z,91.28
2017-11-26T11:05:45.257Z,91.09
2017-11-26T11:06:45.274Z,91.75
2017-11-26T11:07:45.354Z,91.09
2017-11-26T11:08:45.315Z,91.56
2017-11-26T11:09:45.323Z,91.19
2017-11-26T11:10:45.345Z,91.75
2017-11-26T11:11:45.355Z,91.09
2017-11-26T11:12:45.373Z,90.81
2017-11-26T11:13:45.392Z,91.56
2017-11-26T11:14:45.400Z,90.81
2017-11-26T11:15:45.434Z,90.81
2017-11-26T11:16:45.436Z,91.00
2017-11-26T11:17:45.453Z,90.33
2017-11-26T11:18:45.469Z,90.43
2017-11-26T11:19:45.487Z,89.95
2017-11-26T11:20:45.512Z,89.95
2017-11-26T11:21:45.526Z,90.05
2017-11-26T11:22:45.536Z,89.48
2017-11-26T11:23:45.546Z,89.67
2017-11-26T11:24:45.570Z,89.72
2017-11-26T11:25:45.585Z,89.81
2017-11-26T11:26:45.601Z,90.33
2017-11-26T11:27:45.620Z,89.95
2017-11-26T11:28:45.631Z,90.14
2017-11-26T11:29:45.649Z,89.72
2017-11-26T11:30:45.666Z,90.09
2017-11-26T11:31:45.681Z,90.28
2017-11-26T11:32:45.700Z,89.72
2017-11-26T11:33:45.714Z,89.62
2017-11-26T11:34:45.733Z,89.62
2017-11-26T11:35:45.750Z,89.81
2017-11-26T11:36:45.764Z,89.81
2017-11-26T11:37:45.781Z,89.43
2017-11-26T11:38:45.796Z,89.24
2017-11-26T11:39:45.807Z,89.72
2017-11-26T11:40:45.827Z,89.62
2017-11-26T11:41:45.846Z,90.09
2017-11-26T11:42:45.874Z,88.67
2017-11-26T11:43:45.884Z,89.05
2017-11-26T11:44:45.892Z,88.86
2017-11-26T11:45:45.914Z,89.24
2017-11-26T11:46:45.933Z,88.20
2017-11-26T11:47:45.947Z,89.05
2017-11-26T11:48:45.961Z,87.82
2017-11-26T11:49:45.977Z,87.19
2017-11-26T11:50:45.995Z,86.34
2017-11-26T11:51:46.014Z,87.57
2017-11-26T11:52:46.028Z,86.91
2017-11-26T11:53:46.050Z,87.38
2017-11-26T11:54:46.064Z,86.43
2017-11-26T11:55:46.080Z,86.53
2017-11-26T11:56:46.097Z,87.10
2017-11-26T11:57:46.119Z,87.48
2017-11-26T11:58:46.130Z,86.53
2017-11-26T11:59:46.147Z,86.72
2017-11-26T12:00:46.164Z,86.82
2017-11-26T12:01:46.181Z,87.48
2017-11-26T12:02:46.209Z,86.53
2017-11-26T12:03:46.222Z,86.24
2017-11-26T12:04:46.239Z,86.53
2017-11-26T12:05:46.254Z,85.77
2017-11-26T12:06:46.261Z,85.68
2017-11-26T12:07:46.284Z,85.58
2017-11-26T12:08:46.305Z,85.77
2017-11-26T12:09:46.329Z,85.68
2017-11-26T12:10:46.339Z,86.24
2017-11-26T12:11:46.357Z,85.96
2017-11-26T12:12:46.370Z,87.29
2017-11-26T12:13:46.390Z,86.82
2017-11-26T12:14:46.409Z,86.34
2017-11-26T12:15:46.423Z,86.82
2017-11-26T12:16:46.441Z,86.63
2017-11-26T12:17:46.456Z,86.91
2017-11-26T12:18:46.475Z,86.24
2017-11-26T12:19:46.495Z,86.05
2017-11-26T12:20:46.505Z,86.34
2017-11-26T12:21:46.536Z,86.72
2017-11-26T12:22:46.543Z,86.34
2017-11-26T12:23:46.559Z,87.48
2017-11-26T12:24:46.580Z,86.87
2017-11-26T12:25:46.599Z,87.24
2017-11-26T12:26:46.614Z,87.24
2017-11-26T12:27:46.629Z,87.43
2017-11-26T12:28:46.644Z,87.34
2017-11-26T12:29:46.664Z,88.29
2017-11-26T12:30:46.677Z,88.48
2017-11-26T12:31:46.696Z,88.20
2017-11-26T12:32:46.714Z,88.39
2017-11-26T12:33:46.734Z,88.29
2017-11-26T12:34:46.749Z,88.10
2017-11-26T12:35:46.768Z,88.48
2017-11-26T12:36:46.777Z,88.76
2017-11-26T12:37:46.808Z,88.67
2017-11-26T12:38:46.818Z,88.67
2017-11-26T12:39:46.833Z,87.82
2017-11-26T12:40:46.849Z,87.53
2017-11-26T12:41:46.869Z,87.82
2017-11-26T12:42:46.886Z,87.91
2017-11-26T12:43:46.898Z,88.20
2017-11-26T12:44:46.916Z,89.05
2017-11-26T12:45:46.933Z,88.67
2017-11-26T12:46:46.956Z,88.86
2017-11-26T12:47:46.969Z,89.33
2017-11-26T12:48:46.998Z,89.53
2017-11-26T12:49:47.001Z,89.33
2017-11-26T12:50:47.017Z,89.72
2017-11-26T12:51:47.033Z,90.00
2017-11-26T12:52:47.052Z,90.00